sensor_id;sensor_type;location;lat;lon;timestamp;P1;durP1;ratioP1;P2;durP2;ratioP2
29812;SDS011;16707;48.106;11.548;2023-04-28T00:02:00;6.78;;;4.72;;
29812;SDS011;16707;48.106;11.548;2023-04-28T00:04:28;6.70;;;4.35;;
29812;SDS011;16707;48.106;11.548;2023-04-28T00:06:55;6.63;;;3.92;;
29812;SDS011;16707;48.106;11.548;2023-04-28T00:09:28;7.05;;;4.13;;
29812;SDS011;16707;48.106;11.548;2023-04-28T00:12:01;6.25;;;4.20;;
29812;SDS011;16707;48.106;11.548;2023-04-28T00:14:33;6.95;;;4.10;;
29812;SDS011;16707;48.106;11.548;2023-04-28T00:17:00;6.32;;;3.83;;
29812;SDS011;16707;48.106;11.548;2023-04-28T00:19:27;5.97;;;4.05;;
29812;SDS011;16707;48.106;11.548;2023-04-28T00:21:56;7.78;;;3.72;;
29812;SDS011;16707;48.106;11.548;2023-04-28T00:24:23;4.43;;;3.65;;
29812;SDS011;16707;48.106;11.548;2023-04-28T00:26:50;9.05;;;4.78;;
29812;SDS011;16707;48.106;11.548;2023-04-28T00:29:17;4.70;;;3.78;;
29812;SDS011;16707;48.106;11.548;2023-04-28T00:31:46;7.07;;;4.10;;
29812;SDS011;16707;48.106;11.548;2023-04-28T00:34:13;8.02;;;4.13;;
29812;SDS011;16707;48.106;11.548;2023-04-28T00:36:40;5.85;;;3.83;;
29812;SDS011;16707;48.106;11.548;2023-04-28T00:39:10;5.50;;;4.55;;
29812;SDS011;16707;48.106;11.548;2023-04-28T00:41:37;6.07;;;3.80;;
29812;SDS011;16707;48.106;11.548;2023-04-28T00:44:04;5.35;;;3.10;;
29812;SDS011;16707;48.106;11.548;2023-04-28T00:46:32;4.60;;;3.60;;
29812;SDS011;16707;48.106;11.548;2023-04-28T00:49:00;5.45;;;3.95;;
29812;SDS011;16707;48.106;11.548;2023-04-28T00:51:33;4.78;;;3.17;;
29812;SDS011;16707;48.106;11.548;2023-04-28T00:56:38;5.07;;;3.47;;
29812;SDS011;16707;48.106;11.548;2023-04-28T00:59:05;4.63;;;3.60;;
29812;SDS011;16707;48.106;11.548;2023-04-28T01:01:33;5.63;;;3.40;;
29812;SDS011;16707;48.106;11.548;2023-04-28T01:04:05;4.93;;;2.97;;
29812;SDS011;16707;48.106;11.548;2023-04-28T01:06:35;5.85;;;3.05;;
29812;SDS011;16707;48.106;11.548;2023-04-28T01:09:06;3.80;;;3.00;;
29812;SDS011;16707;48.106;11.548;2023-04-28T01:11:33;5.22;;;3.65;;
29812;SDS011;16707;48.106;11.548;2023-04-28T01:14:03;5.47;;;3.35;;
29812;SDS011;16707;48.106;11.548;2023-04-28T01:16:37;6.72;;;3.47;;
29812;SDS011;16707;48.106;11.548;2023-04-28T01:19:15;5.47;;;3.50;;
29812;SDS011;16707;48.106;11.548;2023-04-28T01:21:46;7.20;;;3.50;;
29812;SDS011;16707;48.106;11.548;2023-04-28T01:24:14;5.50;;;3.47;;
29812;SDS011;16707;48.106;11.548;2023-04-28T01:26:44;4.95;;;3.30;;
29812;SDS011;16707;48.106;11.548;2023-04-28T01:29:16;3.38;;;2.97;;
29812;SDS011;16707;48.106;11.548;2023-04-28T01:31:45;4.22;;;3.40;;
29812;SDS011;16707;48.106;11.548;2023-04-28T01:34:14;4.93;;;3.00;;
29812;SDS011;16707;48.106;11.548;2023-04-28T01:36:43;4.00;;;2.70;;
29812;SDS011;16707;48.106;11.548;2023-04-28T01:39:16;3.92;;;3.00;;
29812;SDS011;16707;48.106;11.548;2023-04-28T01:41:43;4.05;;;3.15;;
29812;SDS011;16707;48.106;11.548;2023-04-28T01:44:16;2.90;;;2.60;;
29812;SDS011;16707;48.106;11.548;2023-04-28T01:46:46;3.78;;;2.45;;
29812;SDS011;16707;48.106;11.548;2023-04-28T01:49:19;4.78;;;3.10;;
29812;SDS011;16707;48.106;11.548;2023-04-28T01:51:45;3.10;;;2.40;;
29812;SDS011;16707;48.106;11.548;2023-04-28T01:54:12;4.60;;;2.65;;
29812;SDS011;16707;48.106;11.548;2023-04-28T01:56:41;3.67;;;2.53;;
29812;SDS011;16707;48.106;11.548;2023-04-28T01:59:08;4.72;;;2.78;;
29812;SDS011;16707;48.106;11.548;2023-04-28T02:01:40;3.30;;;2.30;;
29812;SDS011;16707;48.106;11.548;2023-04-28T02:04:13;3.53;;;2.38;;
29812;SDS011;16707;48.106;11.548;2023-04-28T02:06:40;2.35;;;2.00;;
29812;SDS011;16707;48.106;11.548;2023-04-28T02:09:07;3.03;;;2.55;;
29812;SDS011;16707;48.106;11.548;2023-04-28T02:11:34;3.13;;;2.33;;
29812;SDS011;16707;48.106;11.548;2023-04-28T02:14:06;5.30;;;2.38;;
29812;SDS011;16707;48.106;11.548;2023-04-28T02:16:34;4.07;;;3.00;;
29812;SDS011;16707;48.106;11.548;2023-04-28T02:19:09;4.40;;;2.28;;
29812;SDS011;16707;48.106;11.548;2023-04-28T02:21:42;3.22;;;2.13;;
29812;SDS011;16707;48.106;11.548;2023-04-28T02:24:12;3.60;;;2.30;;
29812;SDS011;16707;48.106;11.548;2023-04-28T02:26:39;3.88;;;2.53;;
29812;SDS011;16707;48.106;11.548;2023-04-28T02:29:08;3.00;;;2.30;;
29812;SDS011;16707;48.106;11.548;2023-04-28T02:31:37;4.22;;;2.33;;
29812;SDS011;16707;48.106;11.548;2023-04-28T02:34:04;2.88;;;2.40;;
29812;SDS011;16707;48.106;11.548;2023-04-28T02:36:33;3.13;;;2.30;;
29812;SDS011;16707;48.106;11.548;2023-04-28T02:39:06;2.42;;;2.20;;
29812;SDS011;16707;48.106;11.548;2023-04-28T02:41:38;5.25;;;2.50;;
29812;SDS011;16707;48.106;11.548;2023-04-28T02:44:10;2.53;;;2.33;;
29812;SDS011;16707;48.106;11.548;2023-04-28T02:46:43;4.32;;;2.45;;
29812;SDS011;16707;48.106;11.548;2023-04-28T02:49:15;3.65;;;2.42;;
29812;SDS011;16707;48.106;11.548;2023-04-28T02:51:42;3.50;;;2.35;;
29812;SDS011;16707;48.106;11.548;2023-04-28T02:54:09;3.08;;;2.30;;
29812;SDS011;16707;48.106;11.548;2023-04-28T02:56:36;4.32;;;2.67;;
29812;SDS011;16707;48.106;11.548;2023-04-28T02:59:10;4.50;;;2.40;;
29812;SDS011;16707;48.106;11.548;2023-04-28T03:01:43;5.95;;;2.83;;
29812;SDS011;16707;48.106;11.548;2023-04-28T03:04:19;3.25;;;2.55;;
29812;SDS011;16707;48.106;11.548;2023-04-28T03:06:46;3.88;;;2.50;;
29812;SDS011;16707;48.106;11.548;2023-04-28T03:11:47;2.88;;;2.38;;
29812;SDS011;16707;48.106;11.548;2023-04-28T03:14:19;3.83;;;2.30;;
29812;SDS011;16707;48.106;11.548;2023-04-28T03:16:58;4.05;;;2.17;;
29812;SDS011;16707;48.106;11.548;2023-04-28T03:19:28;4.75;;;2.47;;
29812;SDS011;16707;48.106;11.548;2023-04-28T03:21:57;4.15;;;1.95;;
29812;SDS011;16707;48.106;11.548;2023-04-28T03:24:36;2.67;;;1.95;;
29812;SDS011;16707;48.106;11.548;2023-04-28T03:27:15;2.40;;;2.00;;
29812;SDS011;16707;48.106;11.548;2023-04-28T03:29:56;3.30;;;2.25;;
29812;SDS011;16707;48.106;11.548;2023-04-28T03:32:26;3.08;;;2.63;;
29812;SDS011;16707;48.106;11.548;2023-04-28T03:35:07;2.60;;;1.90;;
29812;SDS011;16707;48.106;11.548;2023-04-28T03:37:43;2.97;;;2.15;;
29812;SDS011;16707;48.106;11.548;2023-04-28T03:40:16;2.42;;;2.00;;
29812;SDS011;16707;48.106;11.548;2023-04-28T03:42:49;4.80;;;2.10;;
29812;SDS011;16707;48.106;11.548;2023-04-28T03:45:20;3.15;;;2.20;;
29812;SDS011;16707;48.106;11.548;2023-04-28T03:48:07;4.25;;;1.90;;
29812;SDS011;16707;48.106;11.548;2023-04-28T03:50:39;3.65;;;2.22;;
29812;SDS011;16707;48.106;11.548;2023-04-28T03:53:07;2.42;;;2.05;;
29812;SDS011;16707;48.106;11.548;2023-04-28T03:55:47;2.90;;;2.30;;
29812;SDS011;16707;48.106;11.548;2023-04-28T03:58:17;3.08;;;2.17;;
29812;SDS011;16707;48.106;11.548;2023-04-28T04:00:46;4.28;;;2.50;;
29812;SDS011;16707;48.106;11.548;2023-04-28T04:03:22;3.47;;;2.08;;
29812;SDS011;16707;48.106;11.548;2023-04-28T04:05:54;3.75;;;2.22;;
29812;SDS011;16707;48.106;11.548;2023-04-28T04:08:22;2.38;;;1.77;;
29812;SDS011;16707;48.106;11.548;2023-04-28T04:10:52;2.05;;;1.80;;
29812;SDS011;16707;48.106;11.548;2023-04-28T04:13:29;2.85;;;2.05;;
29812;SDS011;16707;48.106;11.548;2023-04-28T04:16:00;3.67;;;2.15;;
29812;SDS011;16707;48.106;11.548;2023-04-28T04:18:36;2.65;;;2.10;;
29812;SDS011;16707;48.106;11.548;2023-04-28T04:21:07;3.63;;;1.92;;
29812;SDS011;16707;48.106;11.548;2023-04-28T04:23:44;4.25;;;2.30;;
29812;SDS011;16707;48.106;11.548;2023-04-28T04:26:15;2.85;;;2.08;;
29812;SDS011;16707;48.106;11.548;2023-04-28T04:31:24;3.33;;;2.42;;
29812;SDS011;16707;48.106;11.548;2023-04-28T04:33:57;1.90;;;1.67;;
29812;SDS011;16707;48.106;11.548;2023-04-28T04:36:37;2.60;;;1.88;;
29812;SDS011;16707;48.106;11.548;2023-04-28T04:39:06;3.15;;;2.10;;
29812;SDS011;16707;48.106;11.548;2023-04-28T04:41:40;3.55;;;2.67;;
29812;SDS011;16707;48.106;11.548;2023-04-28T04:44:10;3.17;;;2.30;;
29812;SDS011;16707;48.106;11.548;2023-04-28T04:46:41;4.00;;;2.33;;
29812;SDS011;16707;48.106;11.548;2023-04-28T04:49:08;4.03;;;2.55;;
29812;SDS011;16707;48.106;11.548;2023-04-28T04:51:46;3.78;;;2.10;;
29812;SDS011;16707;48.106;11.548;2023-04-28T04:54:22;3.03;;;2.20;;
29812;SDS011;16707;48.106;11.548;2023-04-28T04:56:52;2.42;;;1.98;;
29812;SDS011;16707;48.106;11.548;2023-04-28T04:59:25;3.78;;;2.55;;
29812;SDS011;16707;48.106;11.548;2023-04-28T05:01:58;3.83;;;2.55;;
29812;SDS011;16707;48.106;11.548;2023-04-28T05:04:31;3.67;;;2.70;;
29812;SDS011;16707;48.106;11.548;2023-04-28T05:06:58;4.00;;;2.78;;
29812;SDS011;16707;48.106;11.548;2023-04-28T05:09:28;4.70;;;3.05;;
29812;SDS011;16707;48.106;11.548;2023-04-28T05:12:00;3.33;;;2.53;;
29812;SDS011;16707;48.106;11.548;2023-04-28T05:14:29;3.80;;;2.60;;
29812;SDS011;16707;48.106;11.548;2023-04-28T05:16:58;3.58;;;2.75;;
29812;SDS011;16707;48.106;11.548;2023-04-28T05:19:34;3.38;;;2.20;;
29812;SDS011;16707;48.106;11.548;2023-04-28T05:22:04;3.50;;;2.55;;
29812;SDS011;16707;48.106;11.548;2023-04-28T05:24:35;2.38;;;2.15;;
29812;SDS011;16707;48.106;11.548;2023-04-28T05:27:06;2.60;;;2.08;;
29812;SDS011;16707;48.106;11.548;2023-04-28T05:29:33;4.47;;;2.42;;
29812;SDS011;16707;48.106;11.548;2023-04-28T05:32:07;2.78;;;2.33;;
29812;SDS011;16707;48.106;11.548;2023-04-28T05:34:34;3.38;;;2.47;;
29812;SDS011;16707;48.106;11.548;2023-04-28T05:37:01;3.40;;;2.17;;
29812;SDS011;16707;48.106;11.548;2023-04-28T05:39:28;3.45;;;2.42;;
29812;SDS011;16707;48.106;11.548;2023-04-28T05:41:55;3.08;;;2.55;;
29812;SDS011;16707;48.106;11.548;2023-04-28T05:44:25;4.15;;;2.53;;
29812;SDS011;16707;48.106;11.548;2023-04-28T05:46:52;4.03;;;2.50;;
29812;SDS011;16707;48.106;11.548;2023-04-28T05:49:26;3.45;;;2.20;;
29812;SDS011;16707;48.106;11.548;2023-04-28T05:51:54;3.80;;;2.55;;
29812;SDS011;16707;48.106;11.548;2023-04-28T05:54:22;2.40;;;2.05;;
29812;SDS011;16707;48.106;11.548;2023-04-28T05:56:49;2.70;;;2.40;;
29812;SDS011;16707;48.106;11.548;2023-04-28T05:59:18;2.67;;;2.15;;
29812;SDS011;16707;48.106;11.548;2023-04-28T06:01:52;3.30;;;2.17;;
29812;SDS011;16707;48.106;11.548;2023-04-28T06:04:21;3.50;;;2.30;;
29812;SDS011;16707;48.106;11.548;2023-04-28T06:06:50;2.30;;;1.90;;
29812;SDS011;16707;48.106;11.548;2023-04-28T06:09:17;4.13;;;2.20;;
29812;SDS011;16707;48.106;11.548;2023-04-28T06:11:48;2.95;;;2.05;;
29812;SDS011;16707;48.106;11.548;2023-04-28T06:14:17;3.10;;;2.17;;
29812;SDS011;16707;48.106;11.548;2023-04-28T06:16:47;3.45;;;2.30;;
29812;SDS011;16707;48.106;11.548;2023-04-28T06:19:16;2.08;;;1.73;;
29812;SDS011;16707;48.106;11.548;2023-04-28T06:21:45;3.50;;;1.95;;
29812;SDS011;16707;48.106;11.548;2023-04-28T06:24:14;4.43;;;2.08;;
29812;SDS011;16707;48.106;11.548;2023-04-28T06:26:41;3.05;;;1.92;;
29812;SDS011;16707;48.106;11.548;2023-04-28T06:29:11;2.70;;;1.88;;
29812;SDS011;16707;48.106;11.548;2023-04-28T06:31:38;3.63;;;1.95;;
29812;SDS011;16707;48.106;11.548;2023-04-28T06:34:05;2.97;;;1.67;;
29812;SDS011;16707;48.106;11.548;2023-04-28T06:36:32;3.78;;;1.95;;
29812;SDS011;16707;48.106;11.548;2023-04-28T06:39:01;3.03;;;1.77;;
29812;SDS011;16707;48.106;11.548;2023-04-28T06:41:28;2.60;;;1.98;;
29812;SDS011;16707;48.106;11.548;2023-04-28T06:43:55;2.50;;;1.70;;
29812;SDS011;16707;48.106;11.548;2023-04-28T06:46:25;2.70;;;1.83;;
29812;SDS011;16707;48.106;11.548;2023-04-28T06:48:52;2.20;;;1.67;;
29812;SDS011;16707;48.106;11.548;2023-04-28T06:51:22;1.98;;;1.60;;
29812;SDS011;16707;48.106;11.548;2023-04-28T06:53:49;3.28;;;1.60;;
29812;SDS011;16707;48.106;11.548;2023-04-28T06:56:18;2.13;;;1.88;;
29812;SDS011;16707;48.106;11.548;2023-04-28T06:58:46;1.88;;;1.65;;
29812;SDS011;16707;48.106;11.548;2023-04-28T07:01:13;1.92;;;1.40;;
29812;SDS011;16707;48.106;11.548;2023-04-28T07:03:40;1.70;;;1.60;;
29812;SDS011;16707;48.106;11.548;2023-04-28T07:06:07;1.95;;;1.40;;
29812;SDS011;16707;48.106;11.548;2023-04-28T07:08:35;1.90;;;1.55;;
29812;SDS011;16707;48.106;11.548;2023-04-28T07:11:05;2.08;;;1.30;;
29812;SDS011;16707;48.106;11.548;2023-04-28T07:13:34;3.15;;;1.23;;
29812;SDS011;16707;48.106;11.548;2023-04-28T07:16:01;1.73;;;1.60;;
29812;SDS011;16707;48.106;11.548;2023-04-28T07:18:29;2.20;;;1.60;;
29812;SDS011;16707;48.106;11.548;2023-04-28T07:20:59;2.08;;;1.38;;
29812;SDS011;16707;48.106;11.548;2023-04-28T07:23:27;2.28;;;1.30;;
29812;SDS011;16707;48.106;11.548;2023-04-28T07:25:54;1.63;;;1.42;;
29812;SDS011;16707;48.106;11.548;2023-04-28T07:28:22;1.70;;;1.15;;
29812;SDS011;16707;48.106;11.548;2023-04-28T07:30:51;1.73;;;1.25;;
29812;SDS011;16707;48.106;11.548;2023-04-28T07:33:18;1.88;;;1.50;;
29812;SDS011;16707;48.106;11.548;2023-04-28T07:35:45;1.45;;;1.23;;
29812;SDS011;16707;48.106;11.548;2023-04-28T07:38:13;2.08;;;1.50;;
29812;SDS011;16707;48.106;11.548;2023-04-28T07:40:42;1.85;;;1.23;;
29812;SDS011;16707;48.106;11.548;2023-04-28T07:43:12;2.15;;;1.50;;
29812;SDS011;16707;48.106;11.548;2023-04-28T07:45:39;2.47;;;1.55;;
29812;SDS011;16707;48.106;11.548;2023-04-28T07:48:08;1.77;;;1.40;;
29812;SDS011;16707;48.106;11.548;2023-04-28T07:50:35;2.33;;;1.65;;
29812;SDS011;16707;48.106;11.548;2023-04-28T07:53:03;2.13;;;1.40;;
29812;SDS011;16707;48.106;11.548;2023-04-28T07:55:30;1.90;;;1.20;;
29812;SDS011;16707;48.106;11.548;2023-04-28T07:58:06;1.83;;;1.33;;
29812;SDS011;16707;48.106;11.548;2023-04-28T08:00:33;2.67;;;1.40;;
29812;SDS011;16707;48.106;11.548;2023-04-28T08:03:00;2.08;;;1.50;;
29812;SDS011;16707;48.106;11.548;2023-04-28T08:05:29;1.75;;;1.30;;
29812;SDS011;16707;48.106;11.548;2023-04-28T08:07:56;2.33;;;1.70;;
29812;SDS011;16707;48.106;11.548;2023-04-28T08:10:24;1.73;;;1.50;;
29812;SDS011;16707;48.106;11.548;2023-04-28T08:12:51;1.73;;;1.30;;
29812;SDS011;16707;48.106;11.548;2023-04-28T08:15:24;3.78;;;2.30;;
29812;SDS011;16707;48.106;11.548;2023-04-28T08:17:51;2.72;;;1.27;;
29812;SDS011;16707;48.106;11.548;2023-04-28T08:20:19;3.35;;;1.40;;
29812;SDS011;16707;48.106;11.548;2023-04-28T08:22:48;1.45;;;1.35;;
29812;SDS011;16707;48.106;11.548;2023-04-28T08:25:15;2.00;;;1.50;;
29812;SDS011;16707;48.106;11.548;2023-04-28T08:27:42;1.73;;;1.40;;
29812;SDS011;16707;48.106;11.548;2023-04-28T08:30:09;1.65;;;1.30;;
29812;SDS011;16707;48.106;11.548;2023-04-28T08:32:36;3.78;;;1.70;;
29812;SDS011;16707;48.106;11.548;2023-04-28T08:35:04;2.63;;;1.58;;
29812;SDS011;16707;48.106;11.548;2023-04-28T08:37:36;1.80;;;1.33;;
29812;SDS011;16707;48.106;11.548;2023-04-28T08:40:06;1.10;;;1.00;;
29812;SDS011;16707;48.106;11.548;2023-04-28T08:42:34;2.97;;;1.60;;
29812;SDS011;16707;48.106;11.548;2023-04-28T08:45:04;1.95;;;1.50;;
29812;SDS011;16707;48.106;11.548;2023-04-28T08:47:32;2.83;;;1.30;;
29812;SDS011;16707;48.106;11.548;2023-04-28T08:50:04;2.00;;;1.40;;
29812;SDS011;16707;48.106;11.548;2023-04-28T08:52:39;1.52;;;1.20;;
29812;SDS011;16707;48.106;11.548;2023-04-28T08:55:09;2.33;;;1.30;;
29812;SDS011;16707;48.106;11.548;2023-04-28T08:57:38;1.30;;;1.10;;
29812;SDS011;16707;48.106;11.548;2023-04-28T09:00:09;1.17;;;1.08;;
29812;SDS011;16707;48.106;11.548;2023-04-28T09:02:37;1.70;;;1.25;;
29812;SDS011;16707;48.106;11.548;2023-04-28T09:05:06;1.58;;;1.23;;
29812;SDS011;16707;48.106;11.548;2023-04-28T09:07:34;1.98;;;1.20;;
29812;SDS011;16707;48.106;11.548;2023-04-28T09:12:52;1.88;;;1.17;;
29812;SDS011;16707;48.106;11.548;2023-04-28T09:15:26;1.13;;;1.02;;
29812;SDS011;16707;48.106;11.548;2023-04-28T09:17:56;1.60;;;1.25;;
29812;SDS011;16707;48.106;11.548;2023-04-28T09:20:24;1.33;;;1.00;;
29812;SDS011;16707;48.106;11.548;2023-04-28T09:23:11;1.95;;;1.30;;
29812;SDS011;16707;48.106;11.548;2023-04-28T09:25:41;2.20;;;1.33;;
29812;SDS011;16707;48.106;11.548;2023-04-28T09:28:22;1.30;;;1.20;;
29812;SDS011;16707;48.106;11.548;2023-04-28T09:30:55;1.27;;;1.00;;
29812;SDS011;16707;48.106;11.548;2023-04-28T09:33:24;1.90;;;1.40;;
29812;SDS011;16707;48.106;11.548;2023-04-28T09:35:53;3.42;;;1.50;;
29812;SDS011;16707;48.106;11.548;2023-04-28T09:38:21;1.35;;;1.08;;
29812;SDS011;16707;48.106;11.548;2023-04-28T09:40:54;1.10;;;0.90;;
29812;SDS011;16707;48.106;11.548;2023-04-28T09:43:26;2.47;;;1.20;;
29812;SDS011;16707;48.106;11.548;2023-04-28T09:45:57;1.80;;;1.10;;
29812;SDS011;16707;48.106;11.548;2023-04-28T09:48:28;1.33;;;1.00;;
29812;SDS011;16707;48.106;11.548;2023-04-28T09:50:58;1.23;;;1.05;;
29812;SDS011;16707;48.106;11.548;2023-04-28T09:53:33;1.20;;;0.90;;
29812;SDS011;16707;48.106;11.548;2023-04-28T09:56:02;2.13;;;0.95;;
29812;SDS011;16707;48.106;11.548;2023-04-28T09:58:30;2.28;;;0.90;;
29812;SDS011;16707;48.106;11.548;2023-04-28T10:01:00;2.53;;;0.90;;
29812;SDS011;16707;48.106;11.548;2023-04-28T10:03:28;1.15;;;0.90;;
29812;SDS011;16707;48.106;11.548;2023-04-28T10:05:56;1.17;;;0.75;;
29812;SDS011;16707;48.106;11.548;2023-04-28T10:08:24;1.05;;;0.82;;
29812;SDS011;16707;48.106;11.548;2023-04-28T10:10:52;1.60;;;0.90;;
29812;SDS011;16707;48.106;11.548;2023-04-28T10:13:24;0.75;;;0.75;;
29812;SDS011;16707;48.106;11.548;2023-04-28T10:15:51;0.90;;;0.80;;
29812;SDS011;16707;48.106;11.548;2023-04-28T10:18:22;2.60;;;0.90;;
29812;SDS011;16707;48.106;11.548;2023-04-28T10:20:54;1.55;;;1.00;;
29812;SDS011;16707;48.106;11.548;2023-04-28T10:26:57;2.47;;;0.93;;
29812;SDS011;16707;48.106;11.548;2023-04-28T10:29:35;1.33;;;0.90;;
29812;SDS011;16707;48.106;11.548;2023-04-28T10:32:21;3.33;;;1.35;;
29812;SDS011;16707;48.106;11.548;2023-04-28T10:34:50;1.40;;;0.75;;
29812;SDS011;16707;48.106;11.548;2023-04-28T10:37:18;1.05;;;0.98;;
29812;SDS011;16707;48.106;11.548;2023-04-28T10:42:57;2.63;;;1.02;;
29812;SDS011;16707;48.106;11.548;2023-04-28T10:51:33;1.85;;;1.00;;
29812;SDS011;16707;48.106;11.548;2023-04-28T10:54:08;1.25;;;0.82;;
29812;SDS011;16707;48.106;11.548;2023-04-28T10:59:47;1.92;;;0.80;;
29812;SDS011;16707;48.106;11.548;2023-04-28T11:05:10;2.40;;;1.13;;
29812;SDS011;16707;48.106;11.548;2023-04-28T11:11:16;1.30;;;0.70;;
29812;SDS011;16707;48.106;11.548;2023-04-28T11:16:15;1.55;;;0.70;;
29812;SDS011;16707;48.106;11.548;2023-04-28T11:18:51;1.02;;;0.77;;
29812;SDS011;16707;48.106;11.548;2023-04-28T11:21:29;1.55;;;0.70;;
29812;SDS011;16707;48.106;11.548;2023-04-28T11:23:58;2.35;;;0.90;;
29812;SDS011;16707;48.106;11.548;2023-04-28T11:26:26;3.95;;;0.90;;
29812;SDS011;16707;48.106;11.548;2023-04-28T11:28:59;1.70;;;0.90;;
29812;SDS011;16707;48.106;11.548;2023-04-28T11:31:30;1.83;;;1.00;;
29812;SDS011;16707;48.106;11.548;2023-04-28T11:34:02;1.05;;;0.90;;
29812;SDS011;16707;48.106;11.548;2023-04-28T11:36:31;1.20;;;0.73;;
29812;SDS011;16707;48.106;11.548;2023-04-28T11:39:01;0.80;;;0.70;;
29812;SDS011;16707;48.106;11.548;2023-04-28T11:41:31;1.98;;;0.90;;
29812;SDS011;16707;48.106;11.548;2023-04-28T11:44:08;1.23;;;0.90;;
29812;SDS011;16707;48.106;11.548;2023-04-28T11:46:43;0.93;;;0.70;;
29812;SDS011;16707;48.106;11.548;2023-04-28T11:49:17;1.60;;;0.80;;
29812;SDS011;16707;48.106;11.548;2023-04-28T11:51:47;1.65;;;0.88;;
29812;SDS011;16707;48.106;11.548;2023-04-28T11:54:19;0.68;;;0.60;;
29812;SDS011;16707;48.106;11.548;2023-04-28T11:56:47;1.45;;;0.80;;
29812;SDS011;16707;48.106;11.548;2023-04-28T11:59:17;0.60;;;0.57;;
29812;SDS011;16707;48.106;11.548;2023-04-28T12:01:58;0.85;;;0.70;;
29812;SDS011;16707;48.106;11.548;2023-04-28T12:04:33;1.13;;;0.60;;
29812;SDS011;16707;48.106;11.548;2023-04-28T12:07:02;1.42;;;0.50;;
29812;SDS011;16707;48.106;11.548;2023-04-28T12:09:32;0.98;;;0.57;;
29812;SDS011;16707;48.106;11.548;2023-04-28T12:12:03;1.30;;;0.70;;
29812;SDS011;16707;48.106;11.548;2023-04-28T12:17:23;1.33;;;0.60;;
29812;SDS011;16707;48.106;11.548;2023-04-28T12:19:52;1.00;;;0.70;;
29812;SDS011;16707;48.106;11.548;2023-04-28T12:22:20;1.67;;;0.60;;
29812;SDS011;16707;48.106;11.548;2023-04-28T12:25:03;1.42;;;0.77;;
29812;SDS011;16707;48.106;11.548;2023-04-28T12:27:33;1.65;;;0.60;;
29812;SDS011;16707;48.106;11.548;2023-04-28T12:30:03;1.48;;;0.93;;
29812;SDS011;16707;48.106;11.548;2023-04-28T12:32:50;1.15;;;0.88;;
29812;SDS011;16707;48.106;11.548;2023-04-28T12:35:21;2.42;;;1.00;;
29812;SDS011;16707;48.106;11.548;2023-04-28T12:37:48;1.02;;;0.80;;
29812;SDS011;16707;48.106;11.548;2023-04-28T12:40:16;1.77;;;1.00;;
29812;SDS011;16707;48.106;11.548;2023-04-28T12:42:48;1.55;;;1.05;;
29812;SDS011;16707;48.106;11.548;2023-04-28T12:45:16;3.42;;;0.77;;
29812;SDS011;16707;48.106;11.548;2023-04-28T12:47:43;0.95;;;0.70;;
29812;SDS011;16707;48.106;11.548;2023-04-28T12:50:13;0.73;;;0.73;;
29812;SDS011;16707;48.106;11.548;2023-04-28T12:52:42;1.48;;;0.70;;
29812;SDS011;16707;48.106;11.548;2023-04-28T12:55:12;1.00;;;0.38;;
29812;SDS011;16707;48.106;11.548;2023-04-28T12:57:42;0.77;;;0.60;;
29812;SDS011;16707;48.106;11.548;2023-04-28T13:00:10;1.60;;;0.70;;
29812;SDS011;16707;48.106;11.548;2023-04-28T13:02:40;1.00;;;0.55;;
29812;SDS011;16707;48.106;11.548;2023-04-28T13:05:10;0.45;;;0.45;;
29812;SDS011;16707;48.106;11.548;2023-04-28T13:07:38;0.60;;;0.60;;
29812;SDS011;16707;48.106;11.548;2023-04-28T13:10:09;2.13;;;0.50;;
29812;SDS011;16707;48.106;11.548;2023-04-28T13:12:37;1.50;;;0.80;;
29812;SDS011;16707;48.106;11.548;2023-04-28T13:15:05;0.77;;;0.57;;
29812;SDS011;16707;48.106;11.548;2023-04-28T13:17:33;1.27;;;0.60;;
29812;SDS011;16707;48.106;11.548;2023-04-28T13:20:00;0.65;;;0.57;;
29812;SDS011;16707;48.106;11.548;2023-04-28T13:22:30;0.30;;;0.30;;
29812;SDS011;16707;48.106;11.548;2023-04-28T13:24:59;2.97;;;0.60;;
29812;SDS011;16707;48.106;11.548;2023-04-28T13:27:28;0.60;;;0.55;;
29812;SDS011;16707;48.106;11.548;2023-04-28T13:29:57;0.52;;;0.40;;
29812;SDS011;16707;48.106;11.548;2023-04-28T13:32:24;0.70;;;0.50;;
29812;SDS011;16707;48.106;11.548;2023-04-28T13:34:52;0.40;;;0.40;;
29812;SDS011;16707;48.106;11.548;2023-04-28T13:37:19;0.52;;;0.50;;
29812;SDS011;16707;48.106;11.548;2023-04-28T13:39:46;0.43;;;0.43;;
29812;SDS011;16707;48.106;11.548;2023-04-28T13:42:14;0.77;;;0.63;;
29812;SDS011;16707;48.106;11.548;2023-04-28T13:44:41;0.45;;;0.32;;
29812;SDS011;16707;48.106;11.548;2023-04-28T13:47:15;0.82;;;0.50;;
29812;SDS011;16707;48.106;11.548;2023-04-28T13:49:45;0.57;;;0.40;;
29812;SDS011;16707;48.106;11.548;2023-04-28T13:52:20;1.00;;;0.35;;
29812;SDS011;16707;48.106;11.548;2023-04-28T13:54:48;0.55;;;0.50;;
29812;SDS011;16707;48.106;11.548;2023-04-28T13:57:18;0.50;;;0.40;;
29812;SDS011;16707;48.106;11.548;2023-04-28T13:59:45;0.40;;;0.40;;
29812;SDS011;16707;48.106;11.548;2023-04-28T14:02:12;1.10;;;0.43;;
29812;SDS011;16707;48.106;11.548;2023-04-28T14:04:44;0.30;;;0.30;;
29812;SDS011;16707;48.106;11.548;2023-04-28T14:07:14;0.70;;;0.37;;
29812;SDS011;16707;48.106;11.548;2023-04-28T14:09:41;0.52;;;0.52;;
29812;SDS011;16707;48.106;11.548;2023-04-28T14:12:08;0.40;;;0.40;;
29812;SDS011;16707;48.106;11.548;2023-04-28T14:14:39;0.73;;;0.40;;
29812;SDS011;16707;48.106;11.548;2023-04-28T14:17:08;0.88;;;0.57;;
29812;SDS011;16707;48.106;11.548;2023-04-28T14:19:38;0.73;;;0.47;;
29812;SDS011;16707;48.106;11.548;2023-04-28T14:22:05;0.57;;;0.32;;
29812;SDS011;16707;48.106;11.548;2023-04-28T14:24:33;0.93;;;0.40;;
29812;SDS011;16707;48.106;11.548;2023-04-28T14:27:00;0.60;;;0.60;;
29812;SDS011;16707;48.106;11.548;2023-04-28T14:29:27;0.90;;;0.50;;
29812;SDS011;16707;48.106;11.548;2023-04-28T14:31:56;0.40;;;0.40;;
29812;SDS011;16707;48.106;11.548;2023-04-28T14:34:23;0.60;;;0.50;;
29812;SDS011;16707;48.106;11.548;2023-04-28T14:36:53;1.02;;;0.60;;
29812;SDS011;16707;48.106;11.548;2023-04-28T14:39:25;1.25;;;0.50;;
29812;SDS011;16707;48.106;11.548;2023-04-28T14:41:55;0.32;;;0.32;;
29812;SDS011;16707;48.106;11.548;2023-04-28T14:44:25;0.40;;;0.40;;
29812;SDS011;16707;48.106;11.548;2023-04-28T14:46:57;1.10;;;0.50;;
29812;SDS011;16707;48.106;11.548;2023-04-28T14:49:27;1.05;;;0.47;;
29812;SDS011;16707;48.106;11.548;2023-04-28T14:51:54;3.72;;;0.70;;
29812;SDS011;16707;48.106;11.548;2023-04-28T14:54:24;0.80;;;0.50;;
29812;SDS011;16707;48.106;11.548;2023-04-28T14:56:55;0.70;;;0.40;;
29812;SDS011;16707;48.106;11.548;2023-04-28T14:59:24;0.47;;;0.40;;
29812;SDS011;16707;48.106;11.548;2023-04-28T15:01:58;0.57;;;0.40;;
29812;SDS011;16707;48.106;11.548;2023-04-28T15:04:25;0.63;;;0.47;;
29812;SDS011;16707;48.106;11.548;2023-04-28T15:06:54;1.10;;;0.57;;
29812;SDS011;16707;48.106;11.548;2023-04-28T15:09:23;0.50;;;0.50;;
29812;SDS011;16707;48.106;11.548;2023-04-28T15:11:53;0.90;;;0.50;;
29812;SDS011;16707;48.106;11.548;2023-04-28T15:14:23;0.70;;;0.30;;
29812;SDS011;16707;48.106;11.548;2023-04-28T15:16:52;0.65;;;0.60;;
29812;SDS011;16707;48.106;11.548;2023-04-28T15:19:21;0.52;;;0.52;;
29812;SDS011;16707;48.106;11.548;2023-04-28T15:21:49;0.95;;;0.60;;
29812;SDS011;16707;48.106;11.548;2023-04-28T15:24:17;1.27;;;0.60;;
29812;SDS011;16707;48.106;11.548;2023-04-28T15:26:45;0.70;;;0.57;;
29812;SDS011;16707;48.106;11.548;2023-04-28T15:29:16;0.63;;;0.43;;